createdAt,value
2019-02-21T00:01:02.153Z,11.87
2019-02-21T00:03:32.219Z,10.93
2019-02-21T00:06:01.842Z,12.40
2019-02-21T00:08:31.528Z,11.10
2019-02-21T00:11:00.545Z,12.17
2019-02-21T00:13:30.241Z,11.10
2019-02-21T00:16:00.203Z,12.20
2019-02-21T00:18:30.179Z,11.87
2019-02-21T00:20:59.793Z,10.77
2019-02-21T00:23:32.038Z,12.33
2019-02-21T00:26:01.689Z,13.37
2019-02-21T00:28:35.566Z,11.17
2019-02-21T00:31:05.247Z,10.80
2019-02-21T00:33:37.818Z,12.47
2019-02-21T00:36:07.032Z,10.73
2019-02-21T00:38:48.541Z,11.67
2019-02-21T00:41:18.189Z,12.13
2019-02-21T00:43:47.439Z,11.13
2019-02-21T00:46:16.461Z,12.70
2019-02-21T00:48:46.137Z,12.07
2019-02-21T00:51:16.963Z,11.90
2019-02-21T00:53:49.209Z,13.20
2019-02-21T00:56:19.246Z,12.60
2019-02-21T00:58:55.345Z,12.03
2019-02-21T01:01:25.062Z,16.30
2019-02-21T01:03:54.991Z,12.50
2019-02-21T01:06:24.830Z,11.87
2019-02-21T01:09:00.278Z,13.47
2019-02-21T01:11:29.853Z,14.00
2019-02-21T01:14:01.365Z,13.20
2019-02-21T01:16:30.938Z,12.30
2019-02-21T01:19:02.972Z,14.23
2019-02-21T01:21:32.786Z,12.57
2019-02-21T01:24:11.116Z,12.90
2019-02-21T01:26:40.002Z,12.60
2019-02-21T01:29:12.861Z,12.83
2019-02-21T01:31:42.505Z,16.27
2019-02-21T01:34:14.400Z,11.77
2019-02-21T01:36:44.262Z,14.97
2019-02-21T01:39:17.388Z,12.57
2019-02-21T01:41:46.377Z,12.60
2019-02-21T01:44:20.700Z,18.27
2019-02-21T01:46:50.283Z,14.33
2019-02-21T01:49:21.565Z,13.67
2019-02-21T01:51:51.392Z,17.50
2019-02-21T01:54:26.467Z,15.30
2019-02-21T01:56:56.022Z,14.93
2019-02-21T01:59:29.066Z,19.43
2019-02-21T02:01:58.059Z,15.80
2019-02-21T02:04:29.723Z,14.90
2019-02-21T02:06:59.569Z,15.83
2019-02-21T02:09:32.548Z,18.23
2019-02-21T02:12:01.405Z,16.47
2019-02-21T02:14:37.709Z,16.60
2019-02-21T02:17:06.651Z,14.27
2019-02-21T02:19:39.263Z,15.50
2019-02-21T02:22:09.125Z,13.50
2019-02-21T02:24:40.906Z,13.43
2019-02-21T02:27:10.525Z,14.57
2019-02-21T02:29:43.704Z,14.17
2019-02-21T02:32:13.091Z,19.37
2019-02-21T02:34:48.209Z,14.17
2019-02-21T02:37:17.818Z,13.30
2019-02-21T02:39:48.102Z,12.60
2019-02-21T02:42:17.704Z,13.50
2019-02-21T02:44:55.278Z,13.63
2019-02-21T02:47:24.882Z,13.87
2019-02-21T02:49:54.445Z,13.50
2019-02-21T02:52:24.332Z,14.23
2019-02-21T02:54:56.052Z,14.27
2019-02-21T02:57:26.107Z,20.83
2019-02-21T03:00:04.827Z,15.00
2019-02-21T03:02:33.792Z,16.53
2019-02-21T03:05:03.623Z,15.30
2019-02-21T03:07:32.805Z,14.83
2019-02-21T03:10:09.605Z,14.07
2019-02-21T03:12:38.774Z,13.93
2019-02-21T03:15:11.795Z,16.73
2019-02-21T03:17:41.042Z,14.13
2019-02-21T03:20:14.120Z,14.10
2019-02-21T03:22:43.969Z,14.53
2019-02-21T03:25:16.870Z,13.03
2019-02-21T03:27:46.590Z,13.60
2019-02-21T03:30:19.149Z,14.87
2019-02-21T03:32:49.340Z,15.97
2019-02-21T03:35:21.317Z,16.33
2019-02-21T03:37:50.948Z,14.20
2019-02-21T03:40:25.186Z,15.50
2019-02-21T03:42:54.829Z,15.57
2019-02-21T03:45:27.792Z,16.97
2019-02-21T03:47:57.939Z,16.67
2019-02-21T03:50:30.347Z,17.13
2019-02-21T03:52:59.417Z,17.30
2019-02-21T03:55:34.632Z,18.90
2019-02-21T03:58:04.281Z,18.50
2019-02-21T04:00:37.043Z,19.10
2019-02-21T04:03:05.995Z,21.93
2019-02-21T04:05:38.485Z,19.83
2019-02-21T04:08:07.644Z,19.33
2019-02-21T04:10:40.727Z,20.00
2019-02-21T04:13:10.266Z,19.40
2019-02-21T04:15:41.825Z,20.80
2019-02-21T04:18:11.433Z,19.83
2019-02-21T04:20:45.468Z,20.03
2019-02-21T04:23:15.344Z,20.03
2019-02-21T04:25:49.702Z,22.27
2019-02-21T04:28:18.594Z,20.10
2019-02-21T04:30:52.754Z,21.97
2019-02-21T04:33:22.303Z,21.47
2019-02-21T04:35:54.608Z,19.67
2019-02-21T04:38:24.389Z,19.67
2019-02-21T04:41:00.827Z,20.67
2019-02-21T04:43:30.459Z,20.53
2019-02-21T04:46:02.341Z,20.03
2019-02-21T04:48:32.162Z,18.80
2019-02-21T04:51:04.911Z,18.20
2019-02-21T04:53:34.483Z,18.27
2019-02-21T04:56:09.796Z,18.50
2019-02-21T04:58:39.351Z,20.53
2019-02-21T05:01:20.056Z,17.87
2019-02-21T05:03:49.614Z,19.47
2019-02-21T05:06:18.509Z,16.40
2019-02-21T05:08:48.114Z,18.50
2019-02-21T05:11:17.441Z,18.03
2019-02-21T05:13:46.335Z,19.50
2019-02-21T05:16:21.682Z,19.13
2019-02-21T05:18:50.849Z,18.93
2019-02-21T05:21:21.291Z,19.87
2019-02-21T05:23:50.208Z,18.97
2019-02-21T05:26:28.545Z,18.90
2019-02-21T05:28:58.498Z,19.80
2019-02-21T05:31:49.454Z,19.90
2019-02-21T05:34:41.679Z,19.93
2019-02-21T05:37:27.482Z,19.60
2019-02-21T05:40:28.840Z,19.43
2019-02-21T05:43:20.726Z,20.23
2019-02-21T05:46:01.305Z,20.33
2019-02-21T05:49:03.026Z,21.07
2019-02-21T05:52:13.553Z,21.63
2019-02-21T05:55:00.985Z,20.30
2019-02-21T05:57:58.350Z,22.30
2019-02-21T06:00:50.024Z,20.60
2019-02-21T06:03:47.654Z,24.07
2019-02-21T06:06:48.279Z,24.33
2019-02-21T06:09:26.383Z,21.70
2019-02-21T06:12:14.215Z,20.83
2019-02-21T06:15:19.091Z,20.57
2019-02-21T06:18:13.967Z,22.17
2019-02-21T06:21:02.043Z,22.20
2019-02-21T06:23:53.358Z,22.17
2019-02-21T06:26:26.911Z,21.60
2019-02-21T06:29:04.883Z,21.20
2019-02-21T06:31:34.625Z,22.80
2019-02-21T06:34:06.141Z,22.07
2019-02-21T06:36:35.921Z,23.00
2019-02-21T06:39:09.452Z,23.47
2019-02-21T06:41:39.365Z,22.87
2019-02-21T06:44:08.592Z,23.63
2019-02-21T06:46:37.706Z,20.97
2019-02-21T06:49:18.199Z,22.27
2019-02-21T06:51:47.887Z,20.93
2019-02-21T06:54:17.894Z,23.50
2019-02-21T06:56:47.535Z,22.00
2019-02-21T06:59:42.464Z,21.23
2019-02-21T07:02:08.141Z,23.20
2019-02-21T07:04:37.857Z,22.50
2019-02-21T07:07:08.813Z,22.20
2019-02-21T07:09:38.466Z,21.57
2019-02-21T07:12:10.476Z,20.23
2019-02-21T07:14:38.797Z,20.50
2019-02-21T07:17:14.451Z,20.60
2019-02-21T07:19:44.407Z,18.90
2019-02-21T07:22:17.719Z,19.80
2019-02-21T07:24:46.765Z,19.67
2019-02-21T07:27:16.606Z,20.03
2019-02-21T07:29:46.289Z,21.10
2019-02-21T07:32:15.893Z,19.80
2019-02-21T07:34:46.316Z,20.10
2019-02-21T07:37:18.861Z,19.87
2019-02-21T07:39:47.470Z,20.00
2019-02-21T07:42:17.371Z,20.77
2019-02-21T07:44:53.945Z,19.53
2019-02-21T07:47:22.983Z,19.63
2019-02-21T07:49:52.786Z,21.53
2019-02-21T07:52:22.463Z,21.00
2019-02-21T07:55:01.292Z,22.93
2019-02-21T07:57:22.887Z,21.40
2019-02-21T07:59:52.454Z,20.90
2019-02-21T08:02:22.045Z,21.97
2019-02-21T08:04:52.225Z,21.30
2019-02-21T08:07:21.815Z,19.97
2019-02-21T08:10:00.348Z,20.80
2019-02-21T08:12:33.139Z,19.07
2019-02-21T08:15:02.751Z,19.63
2019-02-21T08:17:32.358Z,19.27
2019-02-21T08:20:08.487Z,19.23
2019-02-21T08:22:33.415Z,40.33
2019-02-21T08:25:06.894Z,25.40
2019-02-21T08:27:36.771Z,20.83
2019-02-21T08:30:18.821Z,19.40
2019-02-21T08:33:08.866Z,19.07
2019-02-21T08:35:40.705Z,19.50
2019-02-21T08:38:13.753Z,20.90
2019-02-21T08:40:43.485Z,20.87
2019-02-21T08:43:17.617Z,19.57
2019-02-21T08:45:49.929Z,22.80
2019-02-21T08:48:19.530Z,24.03
2019-02-21T08:50:49.388Z,26.00
2019-02-21T08:53:28.376Z,23.07
2019-02-21T08:55:58.135Z,37.07
2019-02-21T08:58:30.314Z,26.97
2019-02-21T09:01:00.029Z,39.93
2019-02-21T09:03:30.870Z,31.93
2019-02-21T09:06:00.615Z,23.97
2019-02-21T09:08:33.553Z,22.83
2019-02-21T09:11:03.949Z,22.33
2019-02-21T09:16:11.637Z,23.27
2019-02-21T09:18:41.207Z,23.13
2019-02-21T09:21:10.777Z,22.90
2019-02-21T09:23:40.941Z,23.00
2019-02-21T09:26:10.580Z,23.80
2019-02-21T09:28:40.771Z,22.97
2019-02-21T09:31:10.685Z,22.93
2019-02-21T09:33:43.861Z,23.03
2019-02-21T09:36:13.523Z,23.20
2019-02-21T09:38:52.346Z,22.23
2019-02-21T09:41:21.921Z,23.37
2019-02-21T09:46:28.675Z,23.60
2019-02-21T09:48:58.258Z,22.50
2019-02-21T09:51:28.603Z,22.23
2019-02-21T09:54:03.244Z,21.63
2019-02-21T09:56:32.899Z,22.50
2019-02-21T09:59:02.507Z,21.57
2019-02-21T10:01:31.442Z,21.10
2019-02-21T10:04:00.911Z,23.20
2019-02-21T10:06:30.410Z,20.23
2019-02-21T10:09:09.889Z,23.17
2019-02-21T10:11:38.825Z,20.70
2019-02-21T10:14:08.232Z,22.17
2019-02-21T10:16:37.895Z,23.83
2019-02-21T10:19:13.617Z,22.63
2019-02-21T10:21:43.229Z,23.30
2019-02-21T10:24:13.886Z,23.00
2019-02-21T10:26:43.754Z,23.07
2019-02-21T10:29:24.340Z,22.20
2019-02-21T10:31:54.226Z,23.63
2019-02-21T10:34:28.262Z,23.63
2019-02-21T10:36:57.885Z,22.57
2019-02-21T10:39:29.555Z,22.10
2019-02-21T10:41:59.193Z,23.07
2019-02-21T10:44:32.121Z,23.37
2019-02-21T10:47:02.096Z,22.67
2019-02-21T10:49:43.282Z,21.87
2019-02-21T10:52:13.130Z,22.83
2019-02-21T10:54:42.702Z,23.10
2019-02-21T10:57:12.370Z,22.70
2019-02-21T10:59:46.743Z,23.67
2019-02-21T11:02:12.481Z,23.87
2019-02-21T11:04:54.487Z,23.47
2019-02-21T11:07:16.834Z,21.93
2019-02-21T11:09:46.398Z,22.90
2019-02-21T11:12:16.055Z,22.50
2019-02-21T11:14:47.824Z,22.53
2019-02-21T11:17:16.819Z,22.40
2019-02-21T11:19:47.300Z,23.43
2019-02-21T11:22:16.923Z,21.67
2019-02-21T11:24:47.698Z,23.07
2019-02-21T11:27:17.878Z,23.90
2019-02-21T11:29:50.874Z,23.47
2019-02-21T11:32:20.457Z,22.30
2019-02-21T11:35:06.255Z,22.70
2019-02-21T11:37:42.425Z,21.17
2019-02-21T11:40:02.451Z,23.73
2019-02-21T11:42:32.110Z,23.17
2019-02-21T11:45:01.686Z,20.83
2019-02-21T11:47:31.817Z,22.83
2019-02-21T11:50:08.274Z,22.17
2019-02-21T11:52:39.498Z,22.27
2019-02-21T11:55:08.863Z,22.47
2019-02-21T11:57:38.532Z,21.83
2019-02-21T12:00:11.132Z,20.23
2019-02-21T12:02:41.049Z,20.50
2019-02-21T12:05:30.353Z,20.23
2019-02-21T12:07:53.395Z,20.40
2019-02-21T12:10:22.495Z,22.53
2019-02-21T12:12:52.095Z,20.20
2019-02-21T12:15:21.333Z,20.30
2019-02-21T12:17:50.249Z,18.63
2019-02-21T12:20:29.309Z,19.50
2019-02-21T12:22:58.529Z,18.80
2019-02-21T12:25:29.279Z,20.20
2019-02-21T12:27:59.203Z,19.37
2019-02-21T12:30:29.054Z,20.73
2019-02-21T12:33:01.067Z,19.73
2019-02-21T12:35:35.914Z,20.13
2019-02-21T12:38:05.647Z,18.17
2019-02-21T12:40:35.277Z,18.27
2019-02-21T12:43:04.962Z,17.97
2019-02-21T12:45:37.083Z,18.43
2019-02-21T12:48:07.303Z,18.93
2019-02-21T12:50:49.706Z,18.73
2019-02-21T12:53:19.601Z,17.73
2019-02-21T12:55:48.546Z,18.00
2019-02-21T12:58:18.152Z,18.47
2019-02-21T13:00:47.829Z,18.90
2019-02-21T13:03:17.401Z,17.60
2019-02-21T13:05:47.143Z,19.10
2019-02-21T13:08:16.205Z,19.50
2019-02-21T13:10:46.973Z,19.03
2019-02-21T13:13:16.303Z,19.33
2019-02-21T13:15:50.892Z,20.33
2019-02-21T13:18:20.950Z,19.43
2019-02-21T13:20:53.122Z,18.47
2019-02-21T13:23:22.797Z,18.47
2019-02-21T13:26:01.313Z,20.63
2019-02-21T13:28:30.869Z,20.67
2019-02-21T13:31:06.176Z,22.03
2019-02-21T13:33:36.204Z,22.63
2019-02-21T13:36:06.822Z,20.80
2019-02-21T13:38:36.734Z,21.03
2019-02-21T13:41:11.859Z,20.37
2019-02-21T13:43:40.805Z,21.50
2019-02-21T13:46:10.530Z,21.00
2019-02-21T13:48:40.188Z,20.87
2019-02-21T13:51:14.694Z,21.03
2019-02-21T13:53:44.349Z,20.10
2019-02-21T13:56:15.634Z,21.00
2019-02-21T13:58:44.546Z,21.57
2019-02-21T14:01:18.208Z,21.50
2019-02-21T14:03:48.282Z,20.83
2019-02-21T14:06:21.266Z,21.77
2019-02-21T14:08:51.013Z,21.53
2019-02-21T14:11:25.340Z,20.70
2019-02-21T14:13:55.098Z,21.10
2019-02-21T14:16:26.906Z,20.70
2019-02-21T14:18:56.849Z,19.70
2019-02-21T14:21:30.340Z,19.80
2019-02-21T14:24:01.029Z,18.60
2019-02-21T14:26:32.947Z,18.80
2019-02-21T14:29:02.617Z,18.20
2019-02-21T14:31:33.775Z,18.60
2019-02-21T14:34:03.724Z,16.93
2019-02-21T14:36:43.613Z,17.97
2019-02-21T14:39:14.006Z,17.10
2019-02-21T14:41:44.002Z,15.93
2019-02-21T14:44:13.050Z,17.83
2019-02-21T14:46:43.484Z,17.67
2019-02-21T14:49:13.157Z,17.33
2019-02-21T14:51:50.652Z,17.40
2019-02-21T14:54:21.792Z,17.10
2019-02-21T14:56:51.510Z,17.97
2019-02-21T14:59:20.506Z,16.70
2019-02-21T15:01:52.989Z,18.67
2019-02-21T15:04:22.565Z,18.43
2019-02-21T15:06:59.510Z,19.57
2019-02-21T15:09:29.100Z,17.83
2019-02-21T15:11:58.342Z,18.90
2019-02-21T15:14:27.434Z,18.70
2019-02-21T15:17:03.882Z,18.07
2019-02-21T15:19:36.908Z,18.03
2019-02-21T15:22:10.515Z,18.83
2019-02-21T15:24:39.881Z,19.13
2019-02-21T15:27:09.825Z,18.07
2019-02-21T15:29:41.494Z,18.90
2019-02-21T15:32:11.283Z,19.77
2019-02-21T15:34:42.209Z,19.40
2019-02-21T15:37:22.508Z,20.00
2019-02-21T15:39:53.373Z,19.50
2019-02-21T15:42:52.437Z,19.80
2019-02-21T15:45:23.574Z,19.77
2019-02-21T15:47:54.551Z,20.60
2019-02-21T15:50:23.885Z,21.00
2019-02-21T15:52:54.918Z,19.37
2019-02-21T15:55:40.058Z,23.93
2019-02-21T15:58:10.142Z,21.50
2019-02-21T16:00:39.851Z,21.00
2019-02-21T16:03:08.853Z,21.47
2019-02-21T16:05:38.536Z,22.63
2019-02-21T16:08:08.132Z,21.63
2019-02-21T16:10:43.420Z,22.57
2019-02-21T16:13:16.242Z,22.87
2019-02-21T16:15:52.525Z,22.67
2019-02-21T16:18:21.455Z,22.43
2019-02-21T16:20:52.942Z,22.33
2019-02-21T16:23:22.876Z,23.07
2019-02-21T16:25:52.619Z,22.90
2019-02-21T16:28:22.329Z,23.37
2019-02-21T16:30:59.164Z,21.77
2019-02-21T16:33:29.858Z,22.60
2019-02-21T16:35:59.081Z,22.90
2019-02-21T16:38:28.770Z,22.30
2019-02-21T16:40:58.775Z,21.93
2019-02-21T16:43:28.664Z,22.37
2019-02-21T16:46:07.340Z,22.13
2019-02-21T16:48:30.026Z,23.27
2019-02-21T16:51:09.591Z,22.07
2019-02-21T16:53:38.909Z,23.73
2019-02-21T16:56:07.861Z,23.23
2019-02-21T16:58:38.400Z,22.47
2019-02-21T17:01:07.325Z,24.80
2019-02-21T17:03:36.915Z,23.13
2019-02-21T17:06:06.066Z,23.27
2019-02-21T17:08:36.151Z,25.23
2019-02-21T17:11:07.012Z,24.60
2019-02-21T17:13:36.690Z,23.60
2019-02-21T17:16:09.858Z,22.87
2019-02-21T17:18:39.562Z,22.93
2019-02-21T17:21:20.994Z,22.47
2019-02-21T17:23:49.835Z,21.90
2019-02-21T17:26:19.726Z,23.33
2019-02-21T17:28:50.905Z,27.33
2019-02-21T17:31:20.511Z,26.63
2019-02-21T17:33:51.479Z,27.53
2019-02-21T17:36:21.486Z,27.23
2019-02-21T17:38:51.066Z,25.87
2019-02-21T17:41:21.563Z,26.00
2019-02-21T17:43:50.879Z,24.23
2019-02-21T17:46:28.186Z,24.67
2019-02-21T17:48:57.139Z,24.13
2019-02-21T17:51:29.032Z,26.77
2019-02-21T17:53:59.666Z,27.33
2019-02-21T17:56:29.408Z,29.73
2019-02-21T17:58:59.114Z,27.87
2019-02-21T18:01:32.812Z,29.37
2019-02-21T18:04:02.918Z,28.70
2019-02-21T18:06:37.229Z,54.87
2019-02-21T18:09:08.014Z,33.67
2019-02-21T18:11:40.963Z,31.93
2019-02-21T18:14:10.615Z,32.57
2019-02-21T18:16:40.384Z,32.47
2019-02-21T18:19:12.853Z,31.37
2019-02-21T18:21:47.303Z,32.87
2019-02-21T18:24:18.737Z,32.40
2019-02-21T18:26:48.454Z,31.23
2019-02-21T18:29:18.415Z,31.97
2019-02-21T18:31:52.947Z,34.63
2019-02-21T18:34:23.438Z,32.10
2019-02-21T18:36:53.823Z,33.07
2019-02-21T18:39:23.013Z,32.10
2019-02-21T18:41:59.470Z,31.57
2019-02-21T18:44:29.479Z,32.13
2019-02-21T18:47:00.786Z,32.43
2019-02-21T18:49:34.057Z,32.73
2019-02-21T18:52:06.799Z,32.67
2019-02-21T18:54:36.454Z,31.60
2019-02-21T18:57:07.733Z,32.73
2019-02-21T18:59:37.578Z,35.37
2019-02-21T19:02:07.299Z,35.87
2019-02-21T19:04:37.072Z,34.87
2019-02-21T19:07:13.856Z,33.93
2019-02-21T19:09:43.801Z,35.40
2019-02-21T19:12:13.458Z,34.23
2019-02-21T19:14:43.089Z,34.73
2019-02-21T19:17:17.593Z,36.57
2019-02-21T19:19:47.228Z,34.43
2019-02-21T19:22:17.189Z,35.90
2019-02-21T19:24:47.112Z,34.73
2019-02-21T19:27:25.058Z,35.73
2019-02-21T19:29:54.923Z,35.10
2019-02-21T19:32:24.767Z,36.77
2019-02-21T19:34:54.698Z,36.47
2019-02-21T19:37:27.242Z,35.80
2019-02-21T19:39:56.802Z,34.57
2019-02-21T19:42:28.161Z,36.30
2019-02-21T19:44:59.232Z,36.10
2019-02-21T19:47:39.290Z,37.47
2019-02-21T19:50:09.909Z,36.23
2019-02-21T19:52:39.488Z,38.07
2019-02-21T19:55:09.272Z,34.43
2019-02-21T19:57:40.008Z,36.37
2019-02-21T20:00:12.275Z,36.67
2019-02-21T20:02:41.974Z,34.63
2019-02-21T20:05:12.230Z,34.50
2019-02-21T20:07:41.215Z,34.70
2019-02-21T20:10:10.148Z,34.37
2019-02-21T20:12:46.148Z,34.33
2019-02-21T20:15:17.493Z,31.10
2019-02-21T20:17:59.283Z,33.10
2019-02-21T20:20:29.378Z,33.03
2019-02-21T20:22:59.054Z,33.07
2019-02-21T20:25:28.736Z,32.53
2019-02-21T20:27:59.596Z,33.83
2019-02-21T20:30:29.400Z,32.53
2019-02-21T20:33:00.607Z,32.33
2019-02-21T20:35:29.554Z,31.37
2019-02-21T20:38:00.658Z,31.57
2019-02-21T20:40:30.623Z,30.77
2019-02-21T20:43:04.996Z,32.03
2019-02-21T20:45:35.985Z,30.30
2019-02-21T20:48:09.480Z,31.30
2019-02-21T20:50:39.151Z,30.70
2019-02-21T20:53:12.078Z,30.37
2019-02-21T20:55:43.671Z,29.27
2019-02-21T20:58:12.948Z,29.00
2019-02-21T21:00:42.806Z,28.90
2019-02-21T21:03:20.200Z,28.63
2019-02-21T21:05:52.006Z,29.07
2019-02-21T21:08:21.884Z,28.90
2019-02-21T21:10:51.486Z,29.93
2019-02-21T21:13:20.441Z,28.73
2019-02-21T21:15:50.539Z,29.60
2019-02-21T21:18:25.271Z,28.90
2019-02-21T21:20:54.919Z,29.63
2019-02-21T21:23:29.033Z,29.37
2019-02-21T21:26:00.612Z,29.17
2019-02-21T21:28:31.122Z,30.23
2019-02-21T21:31:01.161Z,31.37
2019-02-21T21:33:33.806Z,29.47
2019-02-21T21:36:03.786Z,28.30
2019-02-21T21:38:39.100Z,29.97
2019-02-21T21:41:08.653Z,30.40
2019-02-21T21:43:38.596Z,29.63
2019-02-21T21:46:08.128Z,28.30
2019-02-21T21:48:40.889Z,29.00
2019-02-21T21:51:10.578Z,30.33
2019-02-21T21:53:42.382Z,30.00
2019-02-21T21:56:12.084Z,30.87
2019-02-21T21:58:46.446Z,28.60
2019-02-21T22:01:16.011Z,28.40
2019-02-21T22:03:48.602Z,27.87
2019-02-21T22:06:20.275Z,29.37
2019-02-21T22:08:52.218Z,27.90
2019-02-21T22:11:21.765Z,28.13
2019-02-21T22:13:57.689Z,29.40
2019-02-21T22:16:27.455Z,30.80
2019-02-21T22:21:26.039Z,29.47
2019-02-21T22:24:01.987Z,29.13
2019-02-21T22:26:31.859Z,27.80
2019-02-21T22:29:04.377Z,29.73
2019-02-21T22:31:34.335Z,28.37
2019-02-21T22:34:05.193Z,30.67
2019-02-21T22:36:36.780Z,30.37
2019-02-21T22:39:16.225Z,32.67
2019-02-21T22:41:43.485Z,32.70
2019-02-21T22:44:15.708Z,32.70
2019-02-21T22:46:44.609Z,32.50
2019-02-21T22:49:17.036Z,31.90
2019-02-21T22:51:46.354Z,32.33
2019-02-21T22:54:19.718Z,32.33
2019-02-21T22:56:49.304Z,33.27
2019-02-21T22:59:21.756Z,31.80
2019-02-21T23:01:52.537Z,32.40
2019-02-21T23:04:30.157Z,31.77
2019-02-21T23:07:10.606Z,31.83
2019-02-21T23:09:40.180Z,32.77
2019-02-21T23:12:10.346Z,32.10
2019-02-21T23:14:40.157Z,32.67
2019-02-21T23:17:09.851Z,33.93
2019-02-21T23:19:39.449Z,33.03
2019-02-21T23:22:09.056Z,33.30
2019-02-21T23:24:38.974Z,34.30
2019-02-21T23:27:07.889Z,30.80
2019-02-21T23:29:37.577Z,31.60
2019-02-21T23:32:07.469Z,31.70
2019-02-21T23:34:43.903Z,32.97
2019-02-21T23:37:13.614Z,32.70
2019-02-21T23:39:42.795Z,31.77
2019-02-21T23:42:12.426Z,32.10
2019-02-21T23:44:46.506Z,29.03
2019-02-21T23:47:16.364Z,32.07
2019-02-21T23:49:49.041Z,30.67
2019-02-21T23:52:18.028Z,32.90
2019-02-21T23:54:53.528Z,30.43
2019-02-21T23:57:23.110Z,30.10
2019-02-21T23:59:55.242Z,32.33
